Northwest Alabama Regional Airport
KMSL : now visible

Airfield :











YOU CAN JOIN US ON...

 
LOGIN :

Register | Disclaimer

   EN    FR    IT 

 









Legend :    VFR   Marginal VFR   IFR   Intensive IFR   Very Intensive IFR
Visi :
Ceiling :
>= 8 km
>= 3000ft
5 to 8 km
1000 to 3000 ft
1500m to 5 km
500 to 1000 ft
800 to 1500m
200 to 500 ft
< 800m
< 200 ft
Symbols :   Thunderstorms  Fog  Heavy snow  Heavy precipitations  Wind > 20 kt






- Airport Elevation : 551 ft
- IATA code : MSL


KMSL - Northwest Alabama Regional

CURRENT METAR :
  • 250853Z AUTO 07003KT 10SM CLR 21/19 A2996 RMK AO2 SLP140 T02060189 55003

EXPIRED METARs :
  • 250753Z AUTO 13003KT 10SM CLR 21/19 A2995 RMK AO2 SLP135 T02110189
  • 250653Z AUTO 10005KT 10SM CLR 22/19 A2996 RMK AO2 SLP138 T02220194
  • 250553Z AUTO 10003KT 10SM CLR 22/20 A2997 RMK AO2 SLP143 T02170200 10294 20217 403170200 58003

TAF KMSL
Valid from the 25 at 06:00 until the 26 at 06:00 UTC


250520Z 2506/2606 13005KT P6SM SCT120 SCT250
FM251500 13009KT P6SM SCT050 BKN150 BKN250
PROB30 2519/2601 4SM TSRA BKN025CB
FM260200 13005KT P6SM SCT120 BKN200
KZME FIR / North America



MET'MAP, your aeronautical weather chart ! - Copyright ORBIFLY December 2007 - Disclaimer

ORBIFLY MET'MAP TEAM :

Programming & Development : Alexandra Zaïnal
Concept & original design : Baudouin d'Aumeries
Assistance for programming : Marc-Olivier Méhu
Technical & hardware support : Manuel Goepfert

Contact : metmap@orbifly.com




SOURCES & CREDITS :

   NOAA       Earth
Advisory